Time;durP1;ratioP1;P1;durP2;ratioP2;P2;SDS_P1;SDS_P2;PMS_P1;PMS_P2;Temp;Humidity;BMP_temperature;BMP_pressure;BME280_temperature;BME280_humidity;BME280_pressure;Samples;Min_cycle;Max_cycle;Signal;HPM_P1;HPM_P2
2021/07/07 00:00:21;;;;;;;3.85;0.80;;;;;;;13.25;92.74;98396.53;5085313;28;20016;-64
2021/07/07 00:02:47;;;;;;;5.07;0.98;;;;;;;13.24;92.91;98392.13;5084256;28;20328;-64
2021/07/07 00:05:14;;;;;;;3.13;0.90;;;;;;;13.08;92.62;98399.72;5103798;28;20020;-64
2021/07/07 00:07:40;;;;;;;5.43;1.13;;;;;;;13.14;92.70;98398.66;5086184;28;20238;-64
2021/07/07 00:10:09;;;;;;;3.58;1.00;;;;;;;13.11;92.23;98398.75;5084127;28;20039;-64
2021/07/07 00:12:34;;;;;;;9.30;1.00;;;;;;;13.19;92.53;98407.31;5090438;28;20209;-64
2021/07/07 00:15:01;;;;;;;6.28;1.25;;;;;;;13.18;92.87;98410.84;5103375;28;20016;-64
2021/07/07 00:17:26;;;;;;;3.55;1.15;;;;;;;13.21;92.48;98411.63;5088116;28;20035;-64
2021/07/07 00:19:53;;;;;;;3.83;0.82;;;;;;;13.23;92.65;98396.59;5102289;28;20311;-64
2021/07/07 00:22:18;;;;;;;3.53;0.80;;;;;;;13.25;92.89;98396.53;5087902;28;20020;-64
2021/07/07 00:24:45;;;;;;;6.43;0.80;;;;;;;13.24;92.74;98384.22;5085129;28;20024;-64
2021/07/07 00:27:11;;;;;;;2.78;0.75;;;;;;;13.25;92.54;98388.59;5096653;28;20067;-64
2021/07/07 00:29:36;;;;;;;1.90;0.82;;;;;;;13.25;92.25;98402.66;5092151;28;20030;-64
2021/07/07 00:32:02;;;;;;;5.28;1.00;;;;;;;13.27;91.86;98392.03;5083852;28;20084;-64
2021/07/07 00:34:27;;;;;;;7.15;1.25;;;;;;;13.26;91.92;98392.97;5083802;28;20208;-64
2021/07/07 00:36:53;;;;;;;4.22;0.80;;;;;;;13.26;91.88;98392.97;5094173;28;20028;-64
2021/07/07 00:39:18;;;;;;;6.90;1.13;;;;;;;13.26;92.05;98414.09;5103472;28;20024;-64
2021/07/07 00:41:43;;;;;;;2.53;0.75;;;;;;;13.19;91.78;98397.56;5103126;28;20020;-64
2021/07/07 00:44:09;;;;;;;3.08;0.90;;;;;;;13.18;91.53;98406.44;5103687;28;20016;-64
2021/07/07 00:46:37;;;;;;;3.58;0.63;;;;;;;13.12;91.45;98401.34;5095518;28;20020;-64
2021/07/07 00:49:03;;;;;;;8.65;0.90;;;;;;;13.15;91.29;98400.38;5084831;28;20028;-64
2021/07/07 00:51:28;;;;;;;4.40;0.73;;;;;;;13.13;91.63;98399.56;5083512;28;20016;-64
2021/07/07 00:53:55;;;;;;;4.18;0.85;;;;;;;13.10;91.45;98426.09;5083638;28;20207;-64
2021/07/07 00:56:22;;;;;;;5.22;0.85;;;;;;;13.01;91.48;98425.47;5094843;28;20058;-64
2021/07/07 00:58:53;;;;;;;3.25;0.70;;;;;;;12.93;91.78;98432.75;5094348;28;20047;-64
2021/07/07 01:01:18;;;;;;;7.15;0.88;;;;;;;12.95;91.63;98430.91;5099121;28;20029;-64
2021/07/07 01:03:44;;;;;;;3.38;0.75;;;;;;;12.97;91.37;98428.22;5096281;28;20065;-64
2021/07/07 01:06:09;;;;;;;5.72;1.25;;;;;;;12.95;92.11;98414.22;5100176;28;20028;-64
2021/07/07 01:08:34;;;;;;;5.60;1.20;;;;;;;12.94;93.24;98407.19;5088492;28;20291;-64
2021/07/07 01:11:00;;;;;;;6.65;1.10;;;;;;;12.97;93.38;98407.97;5087313;28;20028;-64
2021/07/07 01:13:25;;;;;;;5.50;2.47;;;;;;;12.96;92.39;98426.50;5087164;28;20029;-64
2021/07/07 01:15:54;;;;;;;2.55;0.85;;;;;;;12.95;92.38;98424.78;5087253;28;20079;-64
2021/07/07 01:18:19;;;;;;;6.22;1.00;;;;;;;12.99;92.73;98411.47;5087143;28;20189;-64
2021/07/07 01:20:45;;;;;;;3.50;0.70;;;;;;;12.93;91.63;98408.97;5087108;28;20054;-64
2021/07/07 01:23:10;;;;;;;5.53;0.90;;;;;;;12.90;90.95;98417.00;5087103;28;20020;-64
2021/07/07 01:25:35;;;;;;;8.32;0.98;;;;;;;12.89;91.81;98420.56;5088466;28;20020;-64
2021/07/07 01:28:04;;;;;;;2.15;0.60;;;;;;;12.83;91.75;98420.75;5095240;28;20093;-64
2021/07/07 01:30:30;;;;;;;2.50;0.70;;;;;;;12.78;92.63;98427.06;5088363;28;20070;-64
2021/07/07 01:32:55;;;;;;;5.22;0.90;;;;;;;12.83;92.73;98423.41;5086900;28;20266;-64
2021/07/07 01:35:22;;;;;;;2.85;0.70;;;;;;;12.80;92.86;98426.13;5086786;28;20076;-64
2021/07/07 01:37:49;;;;;;;7.90;1.00;;;;;;;12.81;93.05;98412.00;5095691;28;20031;-64
2021/07/07 01:40:19;;;;;;;7.53;1.05;;;;;;;12.84;93.43;98406.63;5096181;28;20070;-64
2021/07/07 01:42:45;;;;;;;7.57;0.90;;;;;;;12.87;93.43;98417.09;5086945;28;20039;-64
2021/07/07 01:45:11;;;;;;;3.10;0.85;;;;;;;12.92;92.96;98414.31;5086661;28;20024;-64
2021/07/07 01:47:37;;;;;;;1.67;0.80;;;;;;;12.96;93.28;98416.81;5095194;28;20021;-64
2021/07/07 01:50:05;;;;;;;3.53;0.85;;;;;;;12.94;92.84;98405.41;5086587;28;20040;-64
2021/07/07 01:52:30;;;;;;;5.28;1.75;;;;;;;12.88;92.59;98400.31;5086410;28;20104;-64
2021/07/07 01:54:55;;;;;;;8.30;0.85;;;;;;;12.87;92.54;98401.25;5097757;28;20066;-64
2021/07/07 01:57:21;;;;;;;2.42;1.08;;;;;;;12.79;92.74;98403.25;5095106;28;20335;-64
2021/07/07 01:59:46;;;;;;;2.38;0.70;;;;;;;12.79;93.33;98408.53;5087811;28;20020;-64
2021/07/07 02:02:12;;;;;;;7.13;0.80;;;;;;;12.78;93.30;98401.53;5101708;28;20025;-64
2021/07/07 02:04:37;;;;;;;4.57;1.00;;;;;;;12.78;93.47;98404.19;5094163;28;20028;-64
2021/07/07 02:07:03;;;;;;;5.47;0.80;;;;;;;12.81;93.35;98412.00;5094373;28;20020;-64
2021/07/07 02:09:28;;;;;;;3.75;1.20;;;;;;;12.86;93.47;98410.09;5105707;28;20027;-64
2021/07/07 02:11:54;;;;;;;3.55;0.93;;;;;;;12.90;93.21;98400.28;5096811;28;20028;-64
2021/07/07 02:14:20;;;;;;;8.38;1.02;;;;;;;12.85;93.37;98408.34;5086088;28;20334;-64
2021/07/07 02:16:45;;;;;;;1.77;0.80;;;;;;;12.83;93.54;98409.31;5088077;28;20047;-64
2021/07/07 02:19:12;;;;;;;2.85;0.88;;;;;;;12.84;93.74;98401.34;5085996;28;20075;-64
2021/07/07 02:21:37;;;;;;;5.88;0.90;;;;;;;12.79;93.43;98382.13;5093633;28;20323;-64
2021/07/07 02:24:03;;;;;;;3.03;0.80;;;;;;;12.76;93.70;98397.22;5104120;28;20065;-64
2021/07/07 02:26:29;;;;;;;3.42;0.93;;;;;;;12.78;93.77;98411.22;5089154;28;20028;-64
2021/07/07 02:28:54;;;;;;;8.95;0.95;;;;;;;12.79;93.69;98402.41;5105244;28;20020;-64
2021/07/07 02:31:20;;;;;;;2.92;0.82;;;;;;;12.78;94.36;98412.09;5105668;28;20058;-64
2021/07/07 02:33:45;;;;;;;1.98;1.10;;;;;;;12.80;94.16;98425.25;5105378;28;20083;-64
2021/07/07 02:36:11;;;;;;;1.10;1.00;;;;;;;12.83;94.30;98435.72;5093439;28;20042;-64
2021/07/07 02:38:36;;;;;;;5.85;0.95;;;;;;;12.79;93.86;98434.94;5105043;28;20081;-64
2021/07/07 02:41:02;;;;;;;4.57;0.90;;;;;;;12.82;93.62;98434.84;5105527;28;20042;-64
2021/07/07 02:43:27;;;;;;;2.20;0.95;;;;;;;12.77;93.84;98434.16;5089000;28;20028;-64
2021/07/07 02:45:53;;;;;;;5.95;1.00;;;;;;;12.79;93.81;98445.50;5090448;28;20353;-64
2021/07/07 02:48:19;;;;;;;8.02;1.20;;;;;;;12.85;93.47;98453.25;5089653;28;20020;-64
2021/07/07 02:50:45;;;;;;;1.75;0.60;;;;;;;12.90;93.39;98459.28;5091777;28;20027;-64
2021/07/07 02:53:13;;;;;;;3.10;0.90;;;;;;;12.87;93.40;98451.44;5095694;28;20044;-64
2021/07/07 02:55:39;;;;;;;3.75;0.73;;;;;;;12.83;92.93;98441.88;5101164;28;20099;-64
2021/07/07 02:58:05;;;;;;;5.47;1.00;;;;;;;12.83;92.71;98449.81;5090714;28;20017;-64
2021/07/07 03:00:38;;;;;;;3.35;0.90;;;;;;;12.84;92.84;98438.31;5085212;28;20016;-64
2021/07/07 03:03:05;;;;;;;10.35;1.35;;;;;;;12.82;92.76;98440.13;5085241;28;20028;-64
2021/07/07 03:05:31;;;;;;;4.90;1.05;;;;;;;12.76;92.86;98421.84;5086296;28;20034;-64
2021/07/07 03:07:57;;;;;;;7.35;1.05;;;;;;;12.77;93.09;98425.34;5098456;28;20311;-64
2021/07/07 03:10:23;;;;;;;3.10;0.70;;;;;;;12.74;92.88;98425.44;5104450;28;20061;-64
2021/07/07 03:12:48;;;;;;;5.93;1.35;;;;;;;12.74;92.92;98413.13;5102589;28;20270;-64
2021/07/07 03:15:14;;;;;;;2.60;0.90;;;;;;;12.71;92.74;98426.41;5089985;28;20044;-64
2021/07/07 03:17:39;;;;;;;1.58;0.82;;;;;;;12.72;93.11;98428.13;5084910;28;20025;-64
2021/07/07 03:20:06;;;;;;;2.90;0.80;;;;;;;12.75;93.39;98416.59;5086941;28;20024;-64
2021/07/07 03:22:31;;;;;;;14.95;1.05;;;;;;;12.78;93.67;98413.88;5103116;28;20031;-64
2021/07/07 03:24:56;;;;;;;2.25;0.75;;;;;;;12.80;93.58;98419.97;5101029;28;20058;-64
2021/07/07 03:27:22;;;;;;;3.42;0.90;;;;;;;12.84;93.25;98417.19;5101834;28;20090;-64
2021/07/07 03:29:47;;;;;;;6.20;0.95;;;;;;;12.77;92.79;98430.63;5084401;28;20044;-64
2021/07/07 03:32:13;;;;;;;3.03;0.90;;;;;;;12.81;92.96;98421.69;5084634;28;20024;-64
2021/07/07 03:34:38;;;;;;;5.45;1.17;;;;;;;12.75;92.65;98428.03;5094456;28;20192;-64
2021/07/07 03:37:03;;;;;;;6.82;0.70;;;;;;;12.76;92.72;98419.19;5102643;28;20211;-64
2021/07/07 03:39:29;;;;;;;4.43;1.00;;;;;;;12.72;93.34;98422.00;5104249;28;20023;-64
2021/07/07 03:41:54;;;;;;;1.92;0.88;;;;;;;12.75;92.98;98428.03;5096303;28;20024;-64
2021/07/07 03:44:19;;;;;;;5.43;0.80;;;;;;;12.81;92.84;98443.69;5084441;28;20017;-64
2021/07/07 03:46:45;;;;;;;4.43;0.85;;;;;;;12.86;92.59;98440.91;5084427;28;20390;-64
2021/07/07 03:49:11;;;;;;;7.05;0.90;;;;;;;12.80;92.24;98446.41;5084450;28;20091;-64
2021/07/07 03:51:36;;;;;;;6.15;1.10;;;;;;;12.77;92.39;98452.66;5089342;28;20200;-64
2021/07/07 03:54:01;;;;;;;6.47;1.08;;;;;;;12.72;92.80;98454.53;5103938;28;20073;-64
2021/07/07 03:56:28;;;;;;;1.38;0.95;;;;;;;12.72;92.72;98454.53;5102324;28;20027;-64
2021/07/07 03:58:53;;;;;;;3.47;0.85;;;;;;;12.70;92.93;98450.22;5086222;28;20020;-64
2021/07/07 04:01:19;;;;;;;1.85;0.77;;;;;;;12.79;92.89;98457.88;5086154;28;20047;-64
2021/07/07 04:03:44;;;;;;;1.75;0.90;;;;;;;12.84;92.30;98464.75;5103886;28;20023;-64
2021/07/07 04:06:10;;;;;;;2.75;0.75;;;;;;;12.88;92.27;98466.38;5094867;28;20040;-64
2021/07/07 04:08:35;;;;;;;2.65;0.70;;;;;;;12.90;92.26;98464.56;5095758;28;20215;-64
2021/07/07 04:11:01;;;;;;;4.10;0.75;;;;;;;12.92;92.29;98473.28;5102486;28;20343;-64
2021/07/07 04:13:28;;;;;;;7.35;1.10;;;;;;;12.87;92.37;98464.66;5103346;28;20031;-64
2021/07/07 04:15:54;;;;;;;3.22;0.80;;;;;;;12.87;92.47;98472.56;5100041;28;20020;-64
2021/07/07 04:18:21;;;;;;;3.05;0.90;;;;;;;12.91;93.00;98476.00;5100950;28;20368;-64
2021/07/07 04:20:46;;;;;;;3.33;0.80;;;;;;;12.92;92.60;98470.63;5091781;28;20020;-64
2021/07/07 04:23:12;;;;;;;2.33;0.70;;;;;;;12.96;92.69;98472.28;5086335;28;20227;-64
2021/07/07 04:25:37;;;;;;;4.47;0.80;;;;;;;13.02;92.49;98479.19;5090697;28;20021;-64
2021/07/07 04:28:06;;;;;;;6.72;0.80;;;;;;;13.05;92.45;98489.66;5094378;28;20083;-64
2021/07/07 04:30:32;;;;;;;4.47;1.00;;;;;;;13.11;92.70;98496.53;5098225;28;20095;-64
2021/07/07 04:32:57;;;;;;;4.57;0.60;;;;;;;13.06;92.32;98490.53;5097526;28;20020;-64
2021/07/07 04:35:23;;;;;;;3.83;0.82;;;;;;;12.96;91.99;98490.78;5095807;28;20028;-64
2021/07/07 04:37:49;;;;;;;4.72;0.95;;;;;;;12.92;92.18;98499.69;5098868;28;20061;-64
2021/07/07 04:40:15;;;;;;;7.15;0.80;;;;;;;12.95;92.25;98501.41;5090493;28;20024;-64
2021/07/07 04:42:40;;;;;;;3.00;1.00;;;;;;;13.06;92.08;98503.75;5087885;28;20028;-64
2021/07/07 04:45:07;;;;;;;1.98;0.80;;;;;;;13.15;92.27;98511.34;5087802;28;20021;-64
2021/07/07 04:47:33;;;;;;;3.55;0.85;;;;;;;13.19;92.28;98513.03;5087753;28;20371;-64
2021/07/07 04:49:58;;;;;;;4.32;0.95;;;;;;;13.11;92.01;98510.63;5087687;28;20052;-64
2021/07/07 04:52:24;;;;;;;2.10;0.88;;;;;;;13.12;92.13;98506.16;5087625;28;20070;-64
2021/07/07 04:54:49;;;;;;;3.72;0.80;;;;;;;13.11;92.62;98510.63;5087567;28;20024;-64
2021/07/07 04:57:15;;;;;;;1.35;0.60;;;;;;;13.16;92.27;98513.94;5087602;28;20032;-64
2021/07/07 04:59:40;;;;;;;1.95;1.00;;;;;;;13.26;92.26;98512.78;5087551;28;20025;-64
2021/07/07 05:02:06;;;;;;;2.95;0.80;;;;;;;13.35;92.20;98514.25;5087501;28;20323;-64
2021/07/07 05:04:31;;;;;;;1.75;0.95;;;;;;;13.45;91.56;98505.94;5087465;28;20122;-64
2021/07/07 05:06:56;;;;;;;2.50;0.60;;;;;;;13.54;91.34;98507.47;5087397;28;20036;-64
2021/07/07 05:09:22;;;;;;;1.60;0.80;;;;;;;13.59;91.64;98508.16;5087383;28;20327;-64
2021/07/07 05:11:48;;;;;;;5.80;0.88;;;;;;;13.69;91.31;98513.09;5087324;28;20358;-64
2021/07/07 05:14:13;;;;;;;5.65;0.77;;;;;;;13.79;91.12;98521.59;5087142;28;20028;-64
2021/07/07 05:16:39;;;;;;;3.33;0.88;;;;;;;13.86;90.40;98523.94;5087202;28;20033;-64
2021/07/07 05:19:06;;;;;;;6.15;0.50;;;;;;;13.84;90.54;98535.50;5087133;28;20031;-64
2021/07/07 05:21:32;;;;;;;2.47;0.73;;;;;;;13.81;90.00;98530.31;5087137;28;20066;-64
2021/07/07 05:23:57;;;;;;;2.72;0.57;;;;;;;13.79;89.79;98526.88;5087058;28;20079;-64
2021/07/07 05:26:22;;;;;;;3.95;0.90;;;;;;;13.79;90.38;98532.19;5086986;28;20211;-64
2021/07/07 05:28:48;;;;;;;2.45;0.70;;;;;;;13.83;90.39;98529.34;5087237;28;20077;-64
2021/07/07 05:31:13;;;;;;;9.23;0.77;;;;;;;13.86;90.37;98534.53;5086923;28;20052;-64
2021/07/07 05:33:39;;;;;;;1.95;0.77;;;;;;;13.86;90.04;98529.25;5086821;28;20320;-64
2021/07/07 05:36:06;;;;;;;6.90;1.13;;;;;;;14.17;89.31;98529.03;5086850;28;20024;-64
2021/07/07 05:38:32;;;;;;;3.45;0.82;;;;;;;15.07;87.15;98526.53;5086815;28;20312;-64
2021/07/07 05:40:59;;;;;;;5.22;0.70;;;;;;;15.35;85.40;98529.00;5086756;28;20414;-64
2021/07/07 05:43:25;;;;;;;1.40;0.63;;;;;;;16.11;82.74;98524.88;5086657;28;20025;-64
2021/07/07 05:45:51;;;;;;;5.20;0.80;;;;;;;17.07;78.84;98535.59;5086928;28;20028;-64
2021/07/07 05:48:16;;;;;;;6.50;0.80;;;;;;;17.41;76.28;98529.56;5086914;28;20331;-64
2021/07/07 05:50:42;;;;;;;2.85;0.80;;;;;;;17.33;77.20;98529.06;5086850;28;20020;-64
2021/07/07 05:53:07;;;;;;;4.93;0.70;;;;;;;17.39;76.14;98531.41;5086284;28;20280;-64
2021/07/07 05:55:33;;;;;;;2.70;0.73;;;;;;;17.25;76.55;98530.28;5086707;28;20078;-64
2021/07/07 05:57:58;;;;;;;4.00;0.70;;;;;;;16.96;77.78;98530.78;5086501;28;20254;-64
2021/07/07 06:00:25;;;;;;;5.18;0.95;;;;;;;16.68;78.67;98527.66;5086443;28;20029;-64
2021/07/07 06:02:55;;;;;;;3.30;0.80;;;;;;;17.60;77.36;98536.63;5086399;28;20327;-64
2021/07/07 06:05:21;;;;;;;4.60;0.73;;;;;;;18.39;74.50;98522.81;5086584;28;20044;-64
2021/07/07 06:07:47;;;;;;;2.65;0.75;;;;;;;19.33;71.49;98527.41;5086563;28;20028;-64
2021/07/07 06:10:15;;;;;;;3.08;0.80;;;;;;;20.02;70.06;98526.03;5086281;28;20033;-64
2021/07/07 06:12:41;;;;;;;4.22;0.60;;;;;;;20.44;66.24;98534.19;5086184;28;20021;-64
2021/07/07 06:15:08;;;;;;;3.28;0.90;;;;;;;20.95;66.05;98531.03;5086363;28;20088;-64
2021/07/07 06:17:35;;;;;;;2.40;0.70;;;;;;;21.37;64.21;98538.19;5086052;28;20084;-65
2021/07/07 06:20:01;;;;;;;2.97;0.80;;;;;;;21.09;64.46;98536.41;5086092;28;20252;-65
2021/07/07 06:22:26;;;;;;;3.15;0.93;;;;;;;20.98;65.45;98535.34;5085977;28;20261;-65
2021/07/07 06:24:52;;;;;;;4.55;0.77;;;;;;;21.60;64.64;98544.72;5085955;28;20021;-65
2021/07/07 06:27:17;;;;;;;4.43;0.65;;;;;;;22.37;61.27;98543.09;5085905;28;20054;-65
2021/07/07 06:29:43;;;;;;;2.78;0.60;;;;;;;22.46;61.30;98539.81;5085870;28;20025;-65
2021/07/07 06:32:08;;;;;;;3.42;0.70;;;;;;;23.28;57.60;98538.44;5086079;28;20024;-65
2021/07/07 06:34:34;;;;;;;3.10;0.70;;;;;;;23.64;55.59;98530.41;5085699;28;20031;-65
2021/07/07 06:36:59;;;;;;;4.05;1.13;;;;;;;23.53;57.00;98537.53;5085721;28;20024;-65
2021/07/07 06:39:25;;;;;;;6.85;0.88;;;;;;;23.81;56.59;98543.44;5085663;28;20020;-65
2021/07/07 06:41:51;;;;;;;4.03;1.08;;;;;;;24.00;55.09;98538.44;5085804;28;20372;-65
2021/07/07 06:44:16;;;;;;;2.38;0.70;;;;;;;24.17;55.17;98546.09;5085544;28;20020;-65
2021/07/07 06:46:42;;;;;;;5.43;0.75;;;;;;;24.67;52.77;98551.19;5085540;28;20358;-65
2021/07/07 06:49:07;;;;;;;2.97;0.70;;;;;;;24.75;54.41;98545.22;5085541;28;20028;-65
2021/07/07 06:51:32;;;;;;;5.97;0.77;;;;;;;25.18;52.96;98548.94;5085282;28;20040;-65
2021/07/07 06:53:58;;;;;;;3.47;1.10;;;;;;;24.81;51.72;98553.66;5085335;28;20021;-65
2021/07/07 06:56:23;;;;;;;4.97;0.80;;;;;;;25.49;51.33;98550.06;5085329;28;20239;-65
2021/07/07 06:58:49;;;;;;;2.70;0.90;;;;;;;25.47;50.93;98557.44;5085280;28;20020;-65
2021/07/07 07:01:14;;;;;;;3.75;0.90;;;;;;;25.69;49.94;98555.53;5085233;28;20026;-63
2021/07/07 07:03:39;;;;;;;3.42;0.80;;;;;;;25.51;50.36;98558.88;5084590;28;20043;-63
2021/07/07 07:06:05;;;;;;;5.70;0.98;;;;;;;25.95;49.05;98553.41;5085132;28;20024;-63
2021/07/07 07:08:32;;;;;;;3.78;1.02;;;;;;;25.75;50.02;98562.31;5085075;28;20091;-63
2021/07/07 07:10:58;;;;;;;5.15;1.00;;;;;;;26.49;48.24;98555.09;5085286;28;20062;-63
2021/07/07 07:13:23;;;;;;;4.18;0.93;;;;;;;26.66;51.38;98551.84;5084898;28;20021;-63
2021/07/07 07:15:48;;;;;;;4.88;0.95;;;;;;;27.04;48.26;98559.31;5084932;28;20328;-63
2021/07/07 07:18:14;;;;;;;3.47;1.00;;;;;;;27.09;49.24;98559.78;5084864;28;20031;-63
2021/07/07 07:20:40;;;;;;;4.25;1.33;;;;;;;27.02;46.25;98558.63;5085101;28;20307;-63
2021/07/07 07:23:05;;;;;;;4.38;1.02;;;;;;;26.85;46.38;98559.19;5085050;28;20024;-63
2021/07/07 07:25:31;;;;;;;4.07;1.13;;;;;;;26.52;45.73;98564.78;5084770;28;20020;-63
2021/07/07 07:27:57;;;;;;;6.13;1.02;;;;;;;26.24;46.92;98570.78;5084712;28;20032;-63
2021/07/07 07:30:22;;;;;;;3.67;0.93;;;;;;;25.63;47.92;98563.28;5084677;28;20083;-63
2021/07/07 07:32:50;;;;;;;8.82;1.00;;;;;;;26.62;47.55;98560.31;5084558;28;20024;-63
2021/07/07 07:35:17;;;;;;;4.30;0.85;;;;;;;26.27;48.96;98555.19;5083339;28;20075;-63
2021/07/07 07:37:49;;;;;;;1.55;0.90;;;;;;;26.18;47.59;98549.69;5084498;28;20107;-63
2021/07/07 07:40:21;;;;;;;7.78;1.13;;;;;;;26.96;48.39;98542.94;5084758;28;20021;-63
2021/07/07 07:42:47;;;;;;;2.78;0.93;;;;;;;27.39;47.79;98540.88;5084673;28;20185;-63
2021/07/07 07:45:13;;;;;;;5.93;1.10;;;;;;;27.73;47.35;98545.00;5084410;28;20082;-63
2021/07/07 07:47:41;;;;;;;8.02;1.05;;;;;;;28.04;43.34;98546.69;5084445;28;20346;-63
2021/07/07 07:50:11;;;;;;;7.95;1.83;;;;;;;27.90;43.96;98552.47;5084490;28;20016;-63
2021/07/07 07:52:37;;;;;;;7.15;1.10;;;;;;;28.11;44.86;98542.41;5084309;28;20335;-63
2021/07/07 07:55:03;;;;;;;5.05;1.38;;;;;;;27.49;45.11;98547.19;5084253;28;20027;-63
2021/07/07 07:57:29;;;;;;;3.85;1.23;;;;;;;28.19;46.76;98547.94;5084283;28;20039;-63
2021/07/07 07:59:54;;;;;;;5.82;1.20;;;;;;;28.64;43.52;98549.16;5084247;28;20031;-63
2021/07/07 08:02:19;;;;;;;5.32;1.40;;;;;;;28.88;46.60;98552.25;5084197;28;20074;-63
2021/07/07 08:04:45;;;;;;;5.13;1.25;;;;;;;29.26;43.36;98550.47;5084114;28;20020;-63
2021/07/07 08:07:10;;;;;;;4.50;1.25;;;;;;;29.32;41.53;98549.88;5084121;28;20020;-63
2021/07/07 08:09:35;;;;;;;6.00;1.13;;;;;;;29.17;45.42;98555.75;5084114;28;20227;-63
2021/07/07 08:12:01;;;;;;;2.75;1.00;;;;;;;28.69;45.16;98552.25;5084065;28;20020;-63
2021/07/07 08:14:27;;;;;;;5.18;1.30;;;;;;;28.51;43.96;98556.69;5083434;28;20395;-63
2021/07/07 08:16:52;;;;;;;4.63;1.17;;;;;;;28.78;44.67;98555.97;5083620;28;20023;-63
2021/07/07 08:19:17;;;;;;;5.70;1.05;;;;;;;28.92;45.66;98564.50;5084258;28;20029;-63
2021/07/07 08:21:43;;;;;;;4.72;1.33;;;;;;;29.05;44.09;98559.63;5083930;28;20319;-63
2021/07/07 08:24:08;;;;;;;5.68;1.42;;;;;;;28.23;43.34;98554.81;5084008;28;20048;-63
2021/07/07 08:26:34;;;;;;;5.28;1.40;;;;;;;28.42;44.55;98559.38;5083919;28;20047;-63
2021/07/07 08:29:01;;;;;;;6.10;1.63;;;;;;;29.15;42.48;98563.22;5083808;28;20036;-63
2021/07/07 08:31:26;;;;;;;6.50;1.35;;;;;;;27.76;45.70;98560.97;5083887;28;20069;-63
2021/07/07 08:33:54;;;;;;;4.60;1.27;;;;;;;28.91;42.35;98551.94;5083756;28;20028;-63
2021/07/07 08:36:22;;;;;;;5.03;1.20;;;;;;;28.78;44.79;98556.81;5083790;28;20070;-63
2021/07/07 08:38:49;;;;;;;7.63;1.50;;;;;;;29.34;42.20;98565.00;5083773;28;20059;-63
2021/07/07 08:41:15;;;;;;;4.25;1.55;;;;;;;29.82;41.51;98565.66;5083760;28;20032;-63
2021/07/07 08:43:43;;;;;;;5.25;1.30;;;;;;;29.32;39.97;98566.16;5083719;28;20079;-63
2021/07/07 08:46:09;;;;;;;3.95;1.40;;;;;;;29.43;38.88;98572.25;5083770;28;20020;-63
2021/07/07 08:48:34;;;;;;;7.97;1.48;;;;;;;29.85;37.96;98567.22;5083678;28;20370;-63
2021/07/07 08:51:02;;;;;;;7.28;1.60;;;;;;;29.60;38.29;98563.31;5083690;28;20087;-63
2021/07/07 08:53:27;;;;;;;9.30;1.38;;;;;;;29.30;42.10;98563.59;5083458;28;20057;-63
2021/07/07 08:55:54;;;;;;;7.20;1.48;;;;;;;28.66;41.82;98563.38;5083641;28;20107;-63
2021/07/07 08:58:19;;;;;;;7.40;1.50;;;;;;;28.75;44.10;98561.66;5083666;28;20067;-63
2021/07/07 09:00:45;;;;;;;4.32;1.20;;;;;;;29.76;43.60;98566.25;5083618;28;20029;-63
2021/07/07 09:03:14;;;;;;;5.80;1.60;;;;;;;28.79;39.42;98558.53;5083586;28;20028;-63
2021/07/07 09:06:06;;;;;;;5.03;1.67;;;;;;;29.08;43.43;98570.19;5083560;28;20039;-63
2021/07/07 09:08:35;;;;;;;;;;;;;;;29.88;39.82;98567.78;5081933;28;20055;-63
2021/07/07 09:11:15;;;;;;;7.05;1.33;;;;;;;30.18;40.23;98564.75;5083764;28;19979;-63
2021/07/07 09:13:40;;;;;;;6.88;1.45;;;;;;;29.64;39.06;98572.06;5083399;28;20040;-63
2021/07/07 09:16:19;;;;;;;7.57;1.60;;;;;;;29.34;39.43;98569.56;5083449;28;20032;-63
2021/07/07 09:18:45;;;;;;;5.50;1.75;;;;;;;29.61;42.14;98572.31;5083392;28;20028;-63
2021/07/07 09:21:24;;;;;;;3.67;1.20;;;;;;;30.56;39.60;98567.16;5083688;28;20020;-63
2021/07/07 09:23:50;;;;;;;6.50;1.40;;;;;;;29.65;39.83;98569.19;5083345;28;20291;-63
2021/07/07 09:26:25;;;;;;;8.85;1.20;;;;;;;28.47;45.08;98579.66;5084155;28;20028;-63
2021/07/07 09:28:50;;;;;;;8.63;1.70;;;;;;;27.37;41.69;98569.94;5087022;28;20044;-63
2021/07/07 09:31:38;;;;;;;7.85;1.60;;;;;;;27.31;44.19;98575.00;5087059;28;20016;-63
2021/07/07 09:34:16;;;;;;;6.82;1.40;;;;;;;28.45;43.88;98581.66;5086853;28;20333;-63
2021/07/07 09:36:45;;;;;;;6.18;1.60;;;;;;;27.95;43.11;98588.09;5086850;28;20024;-63
2021/07/07 09:39:10;;;;;;;5.28;1.42;;;;;;;27.72;44.10;98573.06;5087113;28;20031;-63
2021/07/07 09:41:37;;;;;;;4.57;1.50;;;;;;;28.25;43.59;98584.47;5086742;28;20343;-63
2021/07/07 09:44:03;;;;;;;5.93;2.03;;;;;;;28.80;45.43;98587.34;5086741;28;20020;-63
2021/07/07 09:46:29;;;;;;;9.77;1.70;;;;;;;29.67;40.34;98588.03;5086676;28;20024;-65
2021/07/07 09:48:54;;;;;;;6.68;1.48;;;;;;;29.39;38.68;98588.97;5086657;28;20020;-64
2021/07/07 09:51:20;;;;;;;10.57;1.98;;;;;;;27.63;43.55;98590.09;5086699;28;20079;-63
2021/07/07 09:53:46;;;;;;;9.23;1.77;;;;;;;27.19;44.79;98593.13;5086467;28;20028;-63
2021/07/07 09:56:12;;;;;;;7.93;1.70;;;;;;;26.63;45.76;98606.09;5086493;28;20024;-63
2021/07/07 09:58:37;;;;;;;4.78;1.58;;;;;;;25.70;46.78;98599.56;5086788;28;20024;-63
2021/07/07 10:01:03;;;;;;;5.18;1.80;;;;;;;25.42;47.87;98597.34;5086466;28;20111;-63
2021/07/07 10:03:28;;;;;;;5.93;1.52;;;;;;;25.21;49.76;98598.06;5086673;28;20051;-63
2021/07/07 10:05:54;;;;;;;8.38;1.70;;;;;;;24.99;53.37;98595.31;5086365;28;20031;-63
2021/07/07 10:08:20;;;;;;;8.30;1.75;;;;;;;24.85;54.13;98587.47;5086298;28;20035;-63
2021/07/07 10:10:47;;;;;;;5.68;1.67;;;;;;;24.45;49.94;98599.53;5086535;28;20020;-63
2021/07/07 10:13:13;;;;;;;6.95;1.80;;;;;;;26.44;51.74;98595.09;5086193;28;20058;-63
2021/07/07 10:15:39;;;;;;;7.32;1.48;;;;;;;27.23;46.95;98594.56;5086363;28;20020;-63
2021/07/07 10:18:07;;;;;;;6.75;1.70;;;;;;;27.32;45.36;98593.78;5086099;28;20024;-63
2021/07/07 10:20:33;;;;;;;8.45;1.73;;;;;;;26.30;47.91;98602.66;5086064;28;20028;-63
2021/07/07 10:23:01;;;;;;;7.15;1.40;;;;;;;24.65;52.57;98598.91;5086030;28;20343;-63
2021/07/07 10:25:29;;;;;;;5.93;1.20;;;;;;;24.36;52.11;98594.00;5085980;28;20043;-64
2021/07/07 10:28:00;;;;;;;6.55;1.65;;;;;;;23.95;55.00;98599.75;5085935;28;20024;-63
2021/07/07 10:30:56;;;;;;;4.15;1.55;;;;;;;24.00;55.46;98602.97;5085903;28;20192;-63
2021/07/07 10:33:23;;;;;;;8.57;1.55;;;;;;;23.63;56.65;98603.06;5082333;28;20036;-63
2021/07/07 10:35:49;;;;;;;7.40;1.30;;;;;;;23.26;57.31;98599.47;5085785;28;20096;-63
2021/07/07 10:38:15;;;;;;;9.63;1.75;;;;;;;23.27;56.06;98595.81;5085066;28;20028;-63
2021/07/07 10:40:49;;;;;;;8.57;1.55;;;;;;;24.02;54.06;98603.75;5085692;28;20029;-63
2021/07/07 10:43:25;;;;;;;4.70;1.58;;;;;;;24.31;51.42;98602.44;5085839;28;20020;-63
2021/07/07 10:45:51;;;;;;;6.90;1.58;;;;;;;24.02;53.17;98595.69;5085555;28;20308;-63
2021/07/07 10:48:25;;;;;;;8.43;1.73;;;;;;;24.01;56.40;98599.31;5085602;28;20061;-63
2021/07/07 10:50:56;;;;;;;4.88;1.58;;;;;;;24.37;57.20;98593.91;5085740;28;20215;-63
2021/07/07 10:53:31;;;;;;;6.82;1.65;;;;;;;25.86;52.85;98597.31;5085251;28;20044;-63
2021/07/07 10:55:59;;;;;;;8.35;2.30;;;;;;;26.82;52.32;98584.63;5085369;28;20247;-63
2021/07/07 10:58:27;;;;;;;8.13;1.60;;;;;;;27.20;47.88;98590.28;5085311;28;20216;-63
2021/07/07 11:00:53;;;;;;;4.30;1.35;;;;;;;27.18;46.74;98588.72;5085285;28;20020;-63
2021/07/07 11:03:31;;;;;;;9.20;1.50;;;;;;;27.16;44.41;98582.56;5085240;28;20027;-63
2021/07/07 11:05:57;;;;;;;2.65;1.40;;;;;;;27.03;48.53;98592.75;5085207;28;20066;-63
2021/07/07 11:08:22;;;;;;;8.88;1.83;;;;;;;25.86;47.78;98598.19;5085116;28;20028;-63
2021/07/07 11:10:59;;;;;;;7.07;1.80;;;;;;;25.30;51.30;98599.16;5085085;28;20024;-63
2021/07/07 11:13:27;;;;;;;4.47;1.05;;;;;;;25.38;50.18;98590.50;5084957;28;20092;-63
2021/07/07 11:15:54;;;;;;;5.97;1.60;;;;;;;24.54;50.97;98597.97;5084952;28;20062;-63
2021/07/07 11:18:22;;;;;;;7.47;1.80;;;;;;;24.37;53.19;98596.59;5084941;28;20336;-63
2021/07/07 11:21:14;;;;;;;7.88;1.60;;;;;;;24.05;53.43;98602.66;5084860;28;20103;-63
2021/07/07 11:23:40;;;;;;;7.15;2.20;;;;;;;23.29;54.00;98593.88;5082893;28;20130;-63
2021/07/07 11:26:09;;;;;;;10.25;1.88;;;;;;;23.59;54.85;98593.50;5084796;28;20131;-63
2021/07/07 11:28:35;;;;;;;5.03;1.50;;;;;;;24.49;54.35;98598.31;5084761;28;20020;-63
2021/07/07 11:31:01;;;;;;;6.70;1.95;;;;;;;24.89;51.08;98588.06;5084683;28;20090;-63